Norfolk, Virginia
Traffic Map
Current Weather Conditions
Norfolk, Virginia
Scattered Clouds
Scattered Clouds
25°
Feels Like: 26°
Wind Chill: 25° Ceiling: Unl
Heat Index: 26° Visibility: 10mi
Dew Point: 21° Wind: 6mph
Humidity: 76% Direction: 190° (S)
Pressure: 30.02in Gusts: 0mph
Raw Report DataKORF 280451Z AUTO 19005KT 10SM SCT065 25/21 A3002 RMK AO2 SLP165 T02500206 403110239 TSNO
Traffic Incident Summary
Active as of:
Severity:
Category:
InformationThere was an issue retrieving the traffic information for this location. Please try a different location or try again shortly.
Advertisements
Track Severe Weather on mobile